createdAt,value
2019-02-07T00:01:05.597Z,16.87
2019-02-07T00:03:35.838Z,15.57
2019-02-07T00:06:04.309Z,16.40
2019-02-07T00:08:32.538Z,13.70
2019-02-07T00:11:00.843Z,15.70
2019-02-07T00:13:29.097Z,15.57
2019-02-07T00:15:57.300Z,14.10
2019-02-07T00:18:26.259Z,15.13
2019-02-07T00:20:57.188Z,16.33
2019-02-07T00:23:25.455Z,16.57
2019-02-07T00:25:53.795Z,16.23
2019-02-07T00:28:21.980Z,15.48
2019-02-07T00:30:50.104Z,15.78
2019-02-07T00:33:18.239Z,15.37
2019-02-07T00:35:46.408Z,16.40
2019-02-07T00:38:14.632Z,14.80
2019-02-07T00:40:42.878Z,16.47
2019-02-07T00:43:11.278Z,16.63
2019-02-07T00:45:39.464Z,14.87
2019-02-07T00:48:18.033Z,14.77
2019-02-07T00:50:37.579Z,15.70
2019-02-07T00:53:06.221Z,15.00
2019-02-07T00:55:34.338Z,16.00
2019-02-07T00:58:02.534Z,14.90
2019-02-07T01:00:32.684Z,16.97
2019-02-07T01:03:00.910Z,16.93
2019-02-07T01:05:29.295Z,14.75
2019-02-07T01:07:57.922Z,16.30
2019-02-07T01:10:29.790Z,16.07
2019-02-07T01:12:58.075Z,17.60
2019-02-07T01:15:27.228Z,17.80
2019-02-07T01:17:55.504Z,16.70
2019-02-07T01:20:23.825Z,15.90
2019-02-07T01:22:52.048Z,16.23
2019-02-07T01:25:21.702Z,15.77
2019-02-07T01:27:49.945Z,15.47
2019-02-07T01:30:22.359Z,14.67
2019-02-07T01:32:52.245Z,15.40
2019-02-07T01:35:20.568Z,15.67
2019-02-07T01:37:48.880Z,15.70
2019-02-07T01:40:17.979Z,16.73
2019-02-07T01:42:46.316Z,14.53
2019-02-07T01:45:15.887Z,15.20
2019-02-07T01:47:44.366Z,14.47
2019-02-07T01:50:13.916Z,14.90
2019-02-07T01:52:42.099Z,15.33
2019-02-07T01:55:10.569Z,14.10
2019-02-07T01:57:38.856Z,14.60
2019-02-07T02:00:10.310Z,14.37
2019-02-07T02:02:39.259Z,14.13
2019-02-07T02:05:08.673Z,13.75
2019-02-07T02:07:36.889Z,15.20
2019-02-07T02:10:06.917Z,14.07
2019-02-07T02:12:37.875Z,16.20
2019-02-07T02:15:11.937Z,14.60
2019-02-07T02:17:40.373Z,14.17
2019-02-07T02:20:11.134Z,15.73
2019-02-07T02:22:39.616Z,16.97
2019-02-07T02:25:09.566Z,13.23
2019-02-07T02:27:37.673Z,16.00
2019-02-07T02:30:13.404Z,14.93
2019-02-07T02:32:41.589Z,13.63
2019-02-07T02:35:09.793Z,14.57
2019-02-07T02:37:38.275Z,15.43
2019-02-07T02:40:07.386Z,15.03
2019-02-07T02:42:37.237Z,14.37
2019-02-07T02:45:08.530Z,13.75
2019-02-07T02:47:37.565Z,14.83
2019-02-07T02:50:07.531Z,15.03
2019-02-07T02:52:36.084Z,15.33
2019-02-07T02:55:05.697Z,15.08
2019-02-07T02:57:33.854Z,15.77
2019-02-07T03:00:03.114Z,14.53
2019-02-07T03:02:39.024Z,16.77
2019-02-07T03:05:18.107Z,14.30
2019-02-07T03:07:53.942Z,15.73
2019-02-07T03:10:23.762Z,16.33
2019-02-07T03:12:54.920Z,15.73
2019-02-07T03:15:33.296Z,14.97
2019-02-07T03:18:05.821Z,15.90
2019-02-07T03:20:41.363Z,16.23
2019-02-07T03:23:17.536Z,17.10
2019-02-07T03:26:04.043Z,14.60
2019-02-07T03:28:48.616Z,15.90
2019-02-07T03:31:18.474Z,15.24
2019-02-07T03:33:48.330Z,15.57
2019-02-07T03:36:19.753Z,16.07
2019-02-07T03:38:55.606Z,16.47
2019-02-07T03:41:29.014Z,13.70
2019-02-07T03:44:01.600Z,15.93
2019-02-07T03:46:48.272Z,14.97
2019-02-07T03:49:20.976Z,15.73
2019-02-07T03:51:56.871Z,15.17
2019-02-07T03:54:38.515Z,15.30
2019-02-07T03:57:23.537Z,16.07
2019-02-07T03:59:59.297Z,15.45
2019-02-07T04:02:47.481Z,14.83
2019-02-07T04:05:23.252Z,14.43
2019-02-07T04:08:03.327Z,14.30
2019-02-07T04:10:33.322Z,15.00
2019-02-07T04:13:09.197Z,13.33
2019-02-07T04:15:44.742Z,14.63
2019-02-07T04:18:30.788Z,13.62
2019-02-07T04:21:09.883Z,13.00
2019-02-07T04:23:57.804Z,14.27
2019-02-07T04:26:36.183Z,13.17
2019-02-07T04:29:11.896Z,14.93
2019-02-07T04:31:41.767Z,12.83
2019-02-07T04:34:15.448Z,13.40
2019-02-07T04:36:48.138Z,14.20
2019-02-07T04:39:18.306Z,14.50
2019-02-07T04:42:07.449Z,15.27
2019-02-07T04:45:01.357Z,13.10
2019-02-07T04:47:32.533Z,15.77
2019-02-07T04:50:18.575Z,13.37
2019-02-07T04:52:48.376Z,13.17
2019-02-07T04:58:10.371Z,13.73
2019-02-07T05:00:40.136Z,13.20
2019-02-07T05:03:31.108Z,12.80
2019-02-07T05:06:07.091Z,12.40
2019-02-07T05:08:45.643Z,13.07
2019-02-07T05:11:30.600Z,12.80
2019-02-07T05:14:00.689Z,12.40
2019-02-07T05:16:39.869Z,14.47
2019-02-07T05:19:04.819Z,13.60
2019-02-07T05:21:52.862Z,15.55
2019-02-07T05:24:22.627Z,12.93
2019-02-07T05:26:52.447Z,14.70
2019-02-07T05:29:25.043Z,13.30
2019-02-07T05:32:11.035Z,11.30
2019-02-07T05:34:40.877Z,13.27
2019-02-07T05:37:15.196Z,11.17
2019-02-07T05:39:42.187Z,11.70
2019-02-07T05:42:12.033Z,11.75
2019-02-07T05:44:53.850Z,12.57
2019-02-07T05:47:23.741Z,12.30
2019-02-07T05:50:09.652Z,11.83
2019-02-07T05:52:55.926Z,12.40
2019-02-07T05:55:36.176Z,11.23
2019-02-07T05:58:21.472Z,12.43
2019-02-07T06:01:03.829Z,12.17
2019-02-07T06:03:42.721Z,13.20
2019-02-07T06:06:18.144Z,13.17
2019-02-07T06:08:53.736Z,12.13
2019-02-07T06:11:40.249Z,11.73
2019-02-07T06:14:16.071Z,13.33
2019-02-07T06:16:45.891Z,11.60
2019-02-07T06:19:18.620Z,12.17
2019-02-07T06:21:54.270Z,13.30
2019-02-07T06:24:24.206Z,13.50
2019-02-07T06:26:59.973Z,14.00
2019-02-07T06:32:20.128Z,12.03
2019-02-07T06:35:07.496Z,11.73
2019-02-07T06:37:37.709Z,12.63
2019-02-07T06:40:18.113Z,12.80
2019-02-07T06:42:48.605Z,12.03
2019-02-07T06:45:37.763Z,12.37
2019-02-07T06:48:19.381Z,11.22
2019-02-07T06:51:01.236Z,12.53
2019-02-07T06:53:42.152Z,11.30
2019-02-07T06:56:16.717Z,14.00
2019-02-07T06:59:01.906Z,13.40
2019-02-07T07:01:31.679Z,12.80
2019-02-07T07:04:19.060Z,16.53
2019-02-07T07:06:48.905Z,14.27
2019-02-07T07:11:54.223Z,13.97
2019-02-07T07:14:27.643Z,13.70
2019-02-07T07:17:06.599Z,13.87
2019-02-07T07:19:48.477Z,15.30
2019-02-07T07:22:28.980Z,15.20
2019-02-07T07:24:56.207Z,13.77
2019-02-07T07:27:35.120Z,14.03
2019-02-07T07:30:22.159Z,15.20
2019-02-07T07:32:52.008Z,14.53
2019-02-07T07:35:21.855Z,15.25
2019-02-07T07:38:10.153Z,14.23
2019-02-07T07:40:58.021Z,17.07
2019-02-07T07:43:34.123Z,13.60
2019-02-07T07:46:13.148Z,15.58
2019-02-07T07:48:46.205Z,16.13
2019-02-07T07:51:22.336Z,16.20
2019-02-07T07:53:54.944Z,15.00
2019-02-07T07:56:36.591Z,14.87
2019-02-07T07:59:10.212Z,15.10
2019-02-07T08:01:40.053Z,14.23
2019-02-07T08:04:16.371Z,13.53
2019-02-07T08:06:49.948Z,14.43
2019-02-07T08:09:22.631Z,15.30
2019-02-07T08:11:52.421Z,14.97
2019-02-07T08:14:27.667Z,12.87
2019-02-07T08:17:00.090Z,12.67
2019-02-07T08:19:29.972Z,14.53
2019-02-07T08:22:05.746Z,15.03
2019-02-07T08:24:50.508Z,13.40
2019-02-07T08:27:35.388Z,14.63
2019-02-07T08:30:15.525Z,14.35
2019-02-07T08:32:57.171Z,14.57
2019-02-07T08:35:42.242Z,14.50
2019-02-07T08:38:14.722Z,14.87
2019-02-07T08:40:44.678Z,13.67
2019-02-07T08:43:23.594Z,14.03
2019-02-07T08:46:09.482Z,16.30
2019-02-07T08:51:36.038Z,11.70
2019-02-07T08:54:22.838Z,11.63
2019-02-07T08:56:58.576Z,10.57
2019-02-07T08:59:29.841Z,10.97
2019-02-07T09:02:15.483Z,11.30
2019-02-07T09:04:45.250Z,8.83
2019-02-07T09:07:32.879Z,8.90
2019-02-07T09:10:02.968Z,6.93
2019-02-07T09:12:32.740Z,3.13
2019-02-07T09:15:17.488Z,2.57
2019-02-07T09:17:57.535Z,3.13
2019-02-07T09:20:28.935Z,2.30
2019-02-07T09:23:01.705Z,3.20
2019-02-07T09:25:34.705Z,3.30
2019-02-07T09:28:10.261Z,4.00
2019-02-07T09:30:48.844Z,4.23
2019-02-07T09:33:26.810Z,3.93
2019-02-07T09:36:05.425Z,3.80
2019-02-07T09:38:33.016Z,3.70
2019-02-07T09:41:05.275Z,2.60
2019-02-07T09:43:46.967Z,3.47
2019-02-07T09:46:19.920Z,2.67
2019-02-07T09:48:55.513Z,3.40
2019-02-07T09:51:42.239Z,3.33
2019-02-07T09:54:28.916Z,3.10
2019-02-07T09:57:05.981Z,2.93
2019-02-07T09:59:52.547Z,4.33
2019-02-07T10:05:01.635Z,3.57
2019-02-07T10:07:32.032Z,3.23
2019-02-07T10:10:04.706Z,4.70
2019-02-07T10:12:51.198Z,3.50
2019-02-07T10:15:26.723Z,4.25
2019-02-07T10:18:14.853Z,4.60
2019-02-07T10:20:53.703Z,2.97
2019-02-07T10:23:40.100Z,3.08
2019-02-07T10:26:10.023Z,3.07
2019-02-07T10:28:56.062Z,4.20
2019-02-07T10:31:42.029Z,3.25
2019-02-07T10:34:27.756Z,3.43
2019-02-07T10:37:13.772Z,3.87
2019-02-07T10:39:46.676Z,3.00
2019-02-07T10:42:16.841Z,4.87
2019-02-07T10:45:03.389Z,3.60
2019-02-07T10:47:33.244Z,5.78
2019-02-07T10:50:05.873Z,3.13
2019-02-07T10:52:47.338Z,3.20
2019-02-07T10:55:19.787Z,3.07
2019-02-07T10:57:52.157Z,3.70
2019-02-07T11:00:23.052Z,4.20
2019-02-07T11:02:58.066Z,3.72
2019-02-07T11:05:35.258Z,2.90
2019-02-07T11:08:07.336Z,3.60
2019-02-07T11:10:43.182Z,3.10
2019-02-07T11:13:22.128Z,4.60
2019-02-07T11:15:54.445Z,3.56
2019-02-07T11:18:40.678Z,3.57
2019-02-07T11:21:13.142Z,3.40
2019-02-07T11:23:56.488Z,4.17
2019-02-07T11:26:32.152Z,3.03
2019-02-07T11:29:02.833Z,3.73
2019-02-07T11:31:43.281Z,4.27
2019-02-07T11:34:30.247Z,3.15
2019-02-07T11:37:15.809Z,4.90
2019-02-07T11:39:48.480Z,3.17
2019-02-07T11:42:24.366Z,2.95
2019-02-07T11:45:09.357Z,2.80
2019-02-07T11:47:48.199Z,3.37
2019-02-07T11:50:19.005Z,3.37
2019-02-07T11:52:54.647Z,3.87
2019-02-07T11:55:40.921Z,4.15
2019-02-07T11:58:28.957Z,4.07
2019-02-07T12:00:58.896Z,3.77
2019-02-07T12:03:46.528Z,3.20
2019-02-07T12:06:31.123Z,3.47
2019-02-07T12:09:06.717Z,3.63
2019-02-07T12:11:36.525Z,3.23
2019-02-07T12:16:51.411Z,3.37
2019-02-07T12:19:37.344Z,3.55
2019-02-07T12:22:09.986Z,3.50
2019-02-07T12:24:39.867Z,2.83
2019-02-07T12:27:14.981Z,3.43
2019-02-07T12:29:46.618Z,2.93
2019-02-07T12:32:28.264Z,2.87
2019-02-07T12:35:14.752Z,3.45
2019-02-07T12:37:44.975Z,2.83
2019-02-07T12:40:14.805Z,2.63
2019-02-07T12:42:45.331Z,3.33
2019-02-07T12:45:31.254Z,3.20
2019-02-07T12:48:07.375Z,3.00
2019-02-07T12:50:52.238Z,2.83
2019-02-07T12:53:28.101Z,2.40
2019-02-07T12:56:15.273Z,3.97
2019-02-07T12:59:02.914Z,2.60
2019-02-07T13:01:37.257Z,2.63
2019-02-07T13:04:25.053Z,3.75
2019-02-07T13:06:59.755Z,3.00
2019-02-07T13:09:35.451Z,3.07
2019-02-07T13:15:02.592Z,2.17
2019-02-07T13:17:32.566Z,2.93
2019-02-07T13:20:07.968Z,3.53
2019-02-07T13:22:46.649Z,2.77
2019-02-07T13:25:19.243Z,3.50
2019-02-07T13:27:55.085Z,2.80
2019-02-07T13:30:29.942Z,2.63
2019-02-07T13:33:02.616Z,2.50
2019-02-07T13:35:39.897Z,2.67
2019-02-07T13:38:25.125Z,2.67
2019-02-07T13:41:13.726Z,2.70
2019-02-07T13:44:08.368Z,1.83
2019-02-07T13:46:57.967Z,2.30
2019-02-07T13:49:25.136Z,2.55
2019-02-07T13:51:54.905Z,2.90
2019-02-07T13:54:27.184Z,2.30
2019-02-07T13:56:56.966Z,2.47
2019-02-07T13:59:38.788Z,2.77
2019-02-07T14:02:12.318Z,2.83
2019-02-07T14:04:42.137Z,2.13
2019-02-07T14:07:12.310Z,2.50
2019-02-07T14:09:58.559Z,2.87
2019-02-07T14:12:31.155Z,2.27
2019-02-07T14:15:20.248Z,2.43
2019-02-07T14:17:52.789Z,2.87
2019-02-07T14:20:22.557Z,2.12
2019-02-07T14:22:58.157Z,2.30
2019-02-07T14:25:28.048Z,2.40
2019-02-07T14:27:57.852Z,2.73
2019-02-07T14:30:30.071Z,2.33
2019-02-07T14:33:17.604Z,2.93
2019-02-07T14:36:05.197Z,3.37
2019-02-07T14:38:36.553Z,3.23
2019-02-07T14:41:06.423Z,3.40
2019-02-07T14:43:38.066Z,3.00
2019-02-07T14:46:17.003Z,2.30
2019-02-07T14:48:45.290Z,2.40
2019-02-07T14:51:15.150Z,2.08
2019-02-07T14:53:43.396Z,2.25
2019-02-07T14:56:11.592Z,2.50
2019-02-07T14:58:39.902Z,2.17
2019-02-07T15:01:08.183Z,2.83
2019-02-07T15:03:36.446Z,2.40
2019-02-07T15:06:05.060Z,2.17
2019-02-07T15:08:33.393Z,1.87
2019-02-07T15:11:06.440Z,2.37
2019-02-07T15:16:37.059Z,2.87
2019-02-07T15:19:13.346Z,2.17
2019-02-07T15:21:41.614Z,2.87
2019-02-07T15:24:18.757Z,2.47
2019-02-07T15:29:40.521Z,2.83
2019-02-07T15:32:09.094Z,2.53
2019-02-07T15:34:37.404Z,2.50
2019-02-07T15:37:05.623Z,2.07
2019-02-07T15:39:33.833Z,2.27
2019-02-07T15:42:02.134Z,2.30
2019-02-07T15:44:30.538Z,2.53
2019-02-07T15:47:00.415Z,2.40
2019-02-07T15:49:28.883Z,2.83
2019-02-07T15:51:57.067Z,3.27
2019-02-07T15:54:25.558Z,2.97
2019-02-07T15:56:56.498Z,3.57
2019-02-07T15:59:26.335Z,4.10
2019-02-07T16:01:56.122Z,3.07
2019-02-07T16:04:28.803Z,2.30
2019-02-07T16:06:57.005Z,2.27
2019-02-07T16:09:25.466Z,3.30
2019-02-07T16:11:55.367Z,2.10
2019-02-07T16:14:25.294Z,2.40
2019-02-07T16:16:53.493Z,3.40
2019-02-07T16:19:23.344Z,3.37
2019-02-07T16:21:51.626Z,3.05
2019-02-07T16:24:19.947Z,2.43
2019-02-07T16:26:48.976Z,3.13
2019-02-07T16:29:18.402Z,2.47
2019-02-07T16:31:48.210Z,3.53
2019-02-07T16:34:18.820Z,3.67
2019-02-07T16:36:46.963Z,3.50
2019-02-07T16:39:15.231Z,2.70
2019-02-07T16:41:43.527Z,3.00
2019-02-07T16:44:11.652Z,3.27
2019-02-07T16:46:39.784Z,2.87
2019-02-07T16:49:08.286Z,3.83
2019-02-07T16:51:55.442Z,3.37
2019-02-07T16:54:25.275Z,4.43
2019-02-07T16:56:53.580Z,3.57
2019-02-07T16:59:21.793Z,3.13
2019-02-07T17:01:59.779Z,2.30
2019-02-07T17:04:25.156Z,3.87
2019-02-07T17:06:53.395Z,3.50
2019-02-07T17:09:23.393Z,4.93
2019-02-07T17:11:51.585Z,5.20
2019-02-07T17:14:22.049Z,4.23
2019-02-07T17:16:50.238Z,4.33
2019-02-07T17:19:18.504Z,3.87
2019-02-07T17:21:46.619Z,3.10
2019-02-07T17:24:14.820Z,3.75
2019-02-07T17:26:44.647Z,3.50
2019-02-07T17:29:15.078Z,2.83
2019-02-07T17:31:42.802Z,4.40
2019-02-07T17:34:16.637Z,3.30
2019-02-07T17:36:46.118Z,4.43
2019-02-07T17:39:30.268Z,4.17
2019-02-07T17:42:30.073Z,3.90
2019-02-07T17:45:08.966Z,3.33
2019-02-07T17:48:27.635Z,4.17
2019-02-07T17:53:36.315Z,3.27
2019-02-07T17:56:30.500Z,2.17
2019-02-07T18:01:51.897Z,2.62
2019-02-07T18:04:27.335Z,2.70
2019-02-07T18:06:57.126Z,3.52
2019-02-07T18:09:27.464Z,2.93
2019-02-07T18:11:56.696Z,4.30
2019-02-07T18:14:38.627Z,4.10
2019-02-07T18:17:19.674Z,2.75
2019-02-07T18:20:08.562Z,2.27
2019-02-07T18:22:46.781Z,2.27
2019-02-07T18:25:11.858Z,2.12
2019-02-07T18:27:42.057Z,2.93
2019-02-07T18:30:11.641Z,3.20
2019-02-07T18:32:40.591Z,3.15
2019-02-07T18:35:08.873Z,2.97
2019-02-07T18:37:37.059Z,4.07
2019-02-07T18:40:10.101Z,2.80
2019-02-07T18:42:50.641Z,3.93
2019-02-07T18:45:16.706Z,3.80
2019-02-07T18:47:46.716Z,3.60
2019-02-07T18:50:21.920Z,2.33
2019-02-07T18:55:25.004Z,8.43
2019-02-07T18:57:54.814Z,2.77
2019-02-07T19:00:24.265Z,2.53
2019-02-07T19:02:52.664Z,2.42
2019-02-07T19:05:23.680Z,3.47
2019-02-07T19:07:58.791Z,2.80
2019-02-07T19:10:32.239Z,3.00
2019-02-07T19:13:01.433Z,2.87
2019-02-07T19:15:31.130Z,2.50
2019-02-07T19:18:12.452Z,2.73
2019-02-07T19:20:41.040Z,3.40
2019-02-07T19:23:09.260Z,2.20
2019-02-07T19:25:39.674Z,2.30
2019-02-07T19:28:11.949Z,2.25
2019-02-07T19:30:39.875Z,2.90
2019-02-07T19:33:08.048Z,3.02
2019-02-07T19:35:36.304Z,2.70
2019-02-07T19:38:04.691Z,2.63
2019-02-07T19:40:32.928Z,2.00
2019-02-07T19:43:01.937Z,2.37
2019-02-07T19:45:30.111Z,2.17
2019-02-07T19:48:04.263Z,3.10
2019-02-07T19:50:28.715Z,2.37
2019-02-07T19:52:57.074Z,2.22
2019-02-07T19:55:26.447Z,1.98
2019-02-07T19:57:58.739Z,2.27
2019-02-07T20:00:29.469Z,2.13
2019-02-07T20:02:57.829Z,2.70
2019-02-07T20:05:26.053Z,2.23
2019-02-07T20:07:54.398Z,3.50
2019-02-07T20:10:41.349Z,3.10
2019-02-07T20:13:05.495Z,2.57
2019-02-07T20:15:38.038Z,2.17
2019-02-07T20:18:07.365Z,2.27
2019-02-07T20:20:55.183Z,1.70
2019-02-07T20:23:14.577Z,2.50
2019-02-07T20:25:43.297Z,1.70
2019-02-07T20:28:11.591Z,2.30
2019-02-07T20:30:42.623Z,1.40
2019-02-07T20:33:12.356Z,2.17
2019-02-07T20:35:40.690Z,2.33
2019-02-07T20:38:12.829Z,4.80
2019-02-07T20:40:41.584Z,3.20
2019-02-07T20:43:10.908Z,2.87
2019-02-07T20:45:39.168Z,2.80
2019-02-07T20:48:08.091Z,3.12
2019-02-07T20:50:36.332Z,3.27
2019-02-07T20:53:06.340Z,2.40
2019-02-07T20:55:34.633Z,2.30
2019-02-07T20:58:10.065Z,2.17
2019-02-07T21:00:42.378Z,2.10
2019-02-07T21:03:10.737Z,2.93
2019-02-07T21:05:39.078Z,1.87
2019-02-07T21:08:07.336Z,2.60
2019-02-07T21:10:41.533Z,2.67
2019-02-07T21:16:01.375Z,2.13
2019-02-07T21:18:35.967Z,1.97
2019-02-07T21:21:01.028Z,2.30
2019-02-07T21:23:29.818Z,1.80
2019-02-07T21:25:57.996Z,2.20
2019-02-07T21:28:26.682Z,2.50
2019-02-07T21:30:54.882Z,1.97
2019-02-07T21:33:23.077Z,2.23
2019-02-07T21:35:51.183Z,1.80
2019-02-07T21:38:20.960Z,1.93
2019-02-07T21:40:54.226Z,1.52
2019-02-07T21:43:22.422Z,1.80
2019-02-07T21:45:50.674Z,1.90
2019-02-07T21:48:18.870Z,2.45
2019-02-07T21:50:47.075Z,1.87
2019-02-07T21:53:15.367Z,2.13
2019-02-07T21:55:43.510Z,2.17
2019-02-07T21:58:13.538Z,1.92
2019-02-07T22:00:48.668Z,2.33
2019-02-07T22:03:13.347Z,2.53
2019-02-07T22:05:41.544Z,2.17
2019-02-07T22:08:11.215Z,2.17
2019-02-07T22:10:39.451Z,2.30
2019-02-07T22:13:08.460Z,2.17
2019-02-07T22:15:36.711Z,1.80
2019-02-07T22:18:07.087Z,2.13
2019-02-07T22:20:35.333Z,1.95
2019-02-07T22:23:03.790Z,2.10
2019-02-07T22:25:31.967Z,1.80
2019-02-07T22:28:01.292Z,1.50
2019-02-07T22:30:37.227Z,2.13
2019-02-07T22:33:06.581Z,2.20
2019-02-07T22:35:34.829Z,2.10
2019-02-07T22:38:11.752Z,1.93
2019-02-07T22:40:39.951Z,1.57
2019-02-07T22:43:08.567Z,2.12
2019-02-07T22:45:37.358Z,1.80
2019-02-07T22:48:08.529Z,2.00
2019-02-07T22:50:41.111Z,1.90
2019-02-07T22:53:09.251Z,1.87
2019-02-07T22:55:37.423Z,1.50
2019-02-07T22:58:06.264Z,2.10
2019-02-07T23:00:37.599Z,2.02
2019-02-07T23:03:06.413Z,1.90
2019-02-07T23:05:34.562Z,1.93
2019-02-07T23:08:08.812Z,1.87
2019-02-07T23:10:35.784Z,1.70
2019-02-07T23:13:05.845Z,1.77
2019-02-07T23:15:34.060Z,2.10
2019-02-07T23:18:02.239Z,2.23
2019-02-07T23:20:30.436Z,1.63
2019-02-07T23:23:04.842Z,2.53
2019-02-07T23:25:28.474Z,2.02
2019-02-07T23:27:58.494Z,2.10
2019-02-07T23:30:26.742Z,2.37
2019-02-07T23:32:55.938Z,1.97
2019-02-07T23:35:24.214Z,1.63
2019-02-07T23:37:52.423Z,2.07
2019-02-07T23:40:21.526Z,1.80
2019-02-07T23:42:50.017Z,2.03
2019-02-07T23:45:20.045Z,2.13
2019-02-07T23:47:49.893Z,1.95
2019-02-07T23:50:18.119Z,1.30
2019-02-07T23:52:46.350Z,2.37
2019-02-07T23:55:15.004Z,1.77
2019-02-07T23:57:44.656Z,1.92
